地図

経路データ

SID SEASON NUMBER BASIN SUBBASIN NAME ISO_TIME NATURE LAT LON WMO_WIND WMO_PRES WMO_AGENCY TRACK_TYPE DIST2LAND LANDFALL IFLAG USA_AGENCY USA_ATCF_ID USA_LAT USA_LON USA_RECORD USA_STATUS USA_WIND USA_PRES USA_SSHS USA_R34_NE USA_R34_SE USA_R34_SW USA_R34_NW USA_R50_NE USA_R50_SE USA_R50_SW USA_R50_NW USA_R64_NE USA_R64_SE USA_R64_SW USA_R64_NW USA_POCI USA_ROCI USA_RMW USA_EYE TOKYO_LAT TOKYO_LON TOKYO_GRADE TOKYO_WIND TOKYO_PRES TOKYO_R50_DIR TOKYO_R50_LONG TOKYO_R50_SHORT TOKYO_R30_DIR TOKYO_R30_LONG TOKYO_R30_SHORT TOKYO_LAND CMA_LAT CMA_LON CMA_CAT CMA_WIND CMA_PRES HKO_LAT HKO_LON HKO_CAT HKO_WIND HKO_PRES NEWDELHI_LAT NEWDELHI_LON NEWDELHI_GRADE NEWDELHI_WIND NEWDELHI_PRES NEWDELHI_CI NEWDELHI_DP NEWDELHI_POCI REUNION_LAT REUNION_LON REUNION_TYPE REUNION_WIND REUNION_PRES REUNION_TNUM REUNION_CI REUNION_RMW REUNION_R34_NE REUNION_R34_SE REUNION_R34_SW REUNION_R34_NW REUNION_R50_NE REUNION_R50_SE REUNION_R50_SW REUNION_R50_NW REUNION_R64_NE REUNION_R64_SE REUNION_R64_SW REUNION_R64_NW BOM_LAT BOM_LON BOM_TYPE BOM_WIND BOM_PRES BOM_TNUM BOM_CI BOM_RMW BOM_R34_NE BOM_R34_SE BOM_R34_SW BOM_R34_NW BOM_R50_NE BOM_R50_SE BOM_R50_SW BOM_R50_NW BOM_R64_NE BOM_R64_SE BOM_R64_SW BOM_R64_NW BOM_ROCI BOM_POCI BOM_EYE BOM_POS_METHOD BOM_PRES_METHOD NADI_LAT NADI_LON NADI_CAT NADI_WIND NADI_PRES WELLINGTON_LAT WELLINGTON_LON WELLINGTON_WIND WELLINGTON_PRES DS824_LAT DS824_LON DS824_STAGE DS824_WIND DS824_PRES TD9636_LAT TD9636_LON TD9636_STAGE TD9636_WIND TD9636_PRES TD9635_LAT TD9635_LON TD9635_WIND TD9635_PRES TD9635_ROCI NEUMANN_LAT NEUMANN_LON NEUMANN_CLASS NEUMANN_WIND NEUMANN_PRES MLC_LAT MLC_LON MLC_CLASS MLC_WIND MLC_PRES USA_GUST BOM_GUST BOM_GUST_PER REUNION_GUST REUNION_GUST_PER USA_SEAHGT USA_SEARAD_NE USA_SEARAD_SE USA_SEARAD_SW USA_SEARAD_NW STORM_SPEED STORM_DIR
1938253N13314 1938 47 NA NA NOT_NAMED 1938-09-09 12:00:00 TS 13.0000 -46.0000 25 hurdat_atl main 1135 1118 O_____________ hurdat_atl AL051938 13.0000 -46.0000 TD 25 -1 12 295
1938253N13314 1938 47 NA NA NOT_NAMED 1938-09-09 15:00:00 TS 13.2503 -46.5523 main 1121 1105 P_____________ AL051938 13.2503 -46.5523 TD 25 -1 12 295
1938253N13314 1938 47 NA NA NOT_NAMED 1938-09-09 18:00:00 TS 13.5000 -47.1000 25 hurdat_atl main 1108 1098 O_____________ hurdat_atl AL051938 13.5000 -47.1000 TD 25 -1 12 295
1938253N13314 1938 47 NA NA NOT_NAMED 1938-09-09 21:00:00 TS 13.7498 -47.6426 main 1098 1092 P_____________ AL051938 13.7498 -47.6426 TD 25 -1 12 295
1938253N13314 1938 47 NA NA NOT_NAMED 1938-09-10 00:00:00 TS 14.0000 -48.2000 25 hurdat_atl main 1097 1088 O_____________ hurdat_atl AL051938 14.0000 -48.2000 TD 25 -1 12 294
1938253N13314 1938 47 NA NA NOT_NAMED 1938-09-10 03:00:00 TS 14.2500 -48.8001 main 1088 1088 P_____________ AL051938 14.2500 -48.8001 TD 25 -1 13 293
1938253N13314 1938 47 NA NA NOT_NAMED 1938-09-10 06:00:00 TS 14.5000 -49.4000 25 hurdat_atl main 1095 1091 O_____________ hurdat_atl AL051938 14.5000 -49.4000 TD 25 -1 12 294
1938253N13314 1938 47 NA NA NOT_NAMED 1938-09-10 09:00:00 TS 14.7498 -49.9576 main 1087 1087 P_____________ AL051938 14.7498 -49.9576 TD 27 -1 12 295
1938253N13314 1938 47 NA NA NOT_NAMED 1938-09-10 12:00:00 TS 15.0000 -50.5000 30 hurdat_atl main 1096 1092 O_____________ hurdat_atl AL051938 15.0000 -50.5000 TD 30 -1 12 295
1938253N13314 1938 47 NA NA NOT_NAMED 1938-09-10 15:00:00 TS 15.2423 -51.0427 main 1098 1098 P_____________ AL051938 15.2423 -51.0427 TD 30 -1 12 295
1938253N13314 1938 47 NA NA NOT_NAMED 1938-09-10 18:00:00 TS 15.5000 -51.6000 30 hurdat_atl main 1112 1109 O_____________ hurdat_atl AL051938 15.5000 -51.6000 TD 30 -1 12 297
1938253N13314 1938 47 NA NA NOT_NAMED 1938-09-10 21:00:00 TS 15.8000 -52.2000 main 1110 1073 P_____________ AL051938 15.8000 -52.2000 TD 30 -1 13 297
1938253N13314 1938 47 NA NA NOT_NAMED 1938-09-11 00:00:00 TS 16.1000 -52.8000 30 hurdat_atl main 1073 1042 O_____________ hurdat_atl AL051938 16.1000 -52.8000 TD 30 -1 12 296
1938253N13314 1938 47 NA NA NOT_NAMED 1938-09-11 03:00:00 TS 16.3498 -53.3578 main 1033 1012 P_____________ AL051938 16.3498 -53.3578 TD 30 -1 12 295
1938253N13314 1938 47 NA NA NOT_NAMED 1938-09-11 06:00:00 TS 16.6000 -53.9000 30 hurdat_atl main 1012 987 O_____________ hurdat_atl AL051938 16.6000 -53.9000 TD 30 -1 12 297
1938253N13314 1938 47 NA NA NOT_NAMED 1938-09-11 09:00:00 TS 16.8849 -54.4502 main 987 973 P_____________ AL051938 16.8849 -54.4502 TD 30 -1 12 300
1938253N13314 1938 47 NA NA NOT_NAMED 1938-09-11 12:00:00 TS 17.2000 -55.0000 30 hurdat_atl main 974 963 O_____________ hurdat_atl AL051938 17.2000 -55.0000 TD 30 -1 12 302
1938253N13314 1938 47 NA NA NOT_NAMED 1938-09-11 15:00:00 TS 17.5423 -55.5501 main 958 957 P_____________ AL051938 17.5423 -55.5501 TD 30 -1 13 304
1938253N13314 1938 47 NA NA NOT_NAMED 1938-09-11 18:00:00 TS 17.9000 -56.1000 30 hurdat_atl main 963 950 O_____________ hurdat_atl AL051938 17.9000 -56.1000 TD 30 -1 13 304
1938253N13314 1938 47 NA NA NOT_NAMED 1938-09-11 21:00:00 TS 18.2498 -56.6428 main 950 886 P_____________ AL051938 18.2498 -56.6428 TD 30 -1 13 304
1938253N13314 1938 47 NA NA NOT_NAMED 1938-09-12 00:00:00 TS 18.6000 -57.2000 30 hurdat_atl main 886 823 O_____________ hurdat_atl AL051938 18.6000 -57.2000 TD 30 -1 13 303
1938253N13314 1938 47 NA NA NOT_NAMED 1938-09-12 03:00:00 TS 18.9499 -57.8002 main 823 764 P_____________ AL051938 18.9499 -57.8002 TD 30 -1 13 302
1938253N13314 1938 47 NA NA NOT_NAMED 1938-09-12 06:00:00 TS 19.3000 -58.4000 30 hurdat_atl main 764 717 O_____________ hurdat_atl AL051938 19.3000 -58.4000 TD 30 -1 13 303
1938253N13314 1938 47 NA NA NOT_NAMED 1938-09-12 09:00:00 TS 19.6647 -58.9502 main 708 665 P_____________ AL051938 19.6647 -58.9502 TD 30 -1 13 304
1938253N13314 1938 47 NA NA NOT_NAMED 1938-09-12 12:00:00 TS 20.0000 -59.5000 30 hurdat_atl main 665 614 O_____________ hurdat_atl AL051938 20.0000 -59.5000 TD 30 -1 12 300
1938253N13314 1938 47 NA NA NOT_NAMED 1938-09-12 15:00:00 TS 20.2723 -60.0853 main 614 564 P_____________ AL051938 20.2723 -60.0853 TD 30 -1 12 294
1938253N13314 1938 47 NA NA NOT_NAMED 1938-09-12 18:00:00 TS 20.5000 -60.7000 30 hurdat_atl main 564 518 O_____________ hurdat_atl AL051938 20.5000 -60.7000 TD 30 -1 13 291
1938253N13314 1938 47 NA NA NOT_NAMED 1938-09-12 21:00:00 TS 20.7224 -61.3500 main 509 469 P_____________ AL051938 20.7224 -61.3500 TD 32 -1 13 288
1938253N13314 1938 47 NA NA NOT_NAMED 1938-09-13 00:00:00 TS 20.9000 -62.0000 35 hurdat_atl main 469 427 O_____________ hurdat_atl AL051938 20.9000 -62.0000 TS 35 0 12 284
1938253N13314 1938 47 NA NA NOT_NAMED 1938-09-13 03:00:00 TS 21.0073 -62.6153 main 427 392 P_____________ AL051938 21.0073 -62.6153 TS 35 0 11 280
1938253N13314 1938 47 NA NA NOT_NAMED 1938-09-13 06:00:00 TS 21.1000 -63.2000 35 hurdat_atl main 392 370 O_____________ hurdat_atl AL051938 21.1000 -63.2000 TS 35 0 11 281
1938253N13314 1938 47 NA NA NOT_NAMED 1938-09-13 09:00:00 TS 21.2274 -63.7801 main 365 355 P_____________ AL051938 21.2274 -63.7801 TS 35 0 11 286
1938253N13314 1938 47 NA NA NOT_NAMED 1938-09-13 12:00:00 TS 21.4000 -64.3000 35 hurdat_atl main 362 358 O_____________ hurdat_atl AL051938 21.4000 -64.3000 TS 35 0 10 294
1938253N13314 1938 47 NA NA NOT_NAMED 1938-09-13 15:00:00 TS 21.6273 -64.7376 main 370 367 P_____________ AL051938 21.6273 -64.7376 TS 35 0 9 304
1938253N13314 1938 47 NA NA NOT_NAMED 1938-09-13 18:00:00 TS 21.9000 -65.1000 35 hurdat_atl main 394 393 O_____________ hurdat_atl AL051938 21.9000 -65.1000 TS 35 0 8 312
1938253N13314 1938 47 NA NA NOT_NAMED 1938-09-13 21:00:00 TS 22.1951 -65.4123 main 425 425 P_____________ AL051938 22.1951 -65.4123 TS 32 -1 8 317
1938253N13314 1938 47 NA NA NOT_NAMED 1938-09-14 00:00:00 TS 22.5000 -65.7000 30 hurdat_atl main 458 O_____________ hurdat_atl AL051938 22.5000 -65.7000 TD 30 -1 8 319

IBTrACS Databaseについて

本データベースは、米国NOAAが公開する1842年以降の世界の熱帯低気圧のベストトラックデータアーカイブInternational Best Track Archive for Climate Stewardship (IBTrACS)を、ウェブで閲覧しやすい形式に変換したものです。

最終更新日:2021-10-21